createdAt,value
2022-09-07T00:00:44.787Z,4.03
2022-09-07T00:03:12.625Z,4.40
2022-09-07T00:05:44.105Z,4.17
2022-09-07T00:08:12.825Z,4.62
2022-09-07T00:10:40.832Z,4.40
2022-09-07T00:13:08.736Z,4.07
2022-09-07T00:15:40.277Z,4.40
2022-09-07T00:18:07.871Z,4.13
2022-09-07T00:20:35.394Z,4.07
2022-09-07T00:23:03.236Z,4.75
2022-09-07T00:25:32.173Z,4.32
2022-09-07T00:27:59.730Z,4.40
2022-09-07T00:30:27.460Z,4.33
2022-09-07T00:32:55.029Z,4.50
2022-09-07T00:35:22.569Z,4.07
2022-09-07T00:37:50.688Z,4.25
2022-09-07T00:40:18.261Z,3.83
2022-09-07T00:42:45.816Z,4.23
2022-09-07T00:45:18.537Z,4.60
2022-09-07T00:47:59.651Z,3.95
2022-09-07T00:50:36.933Z,3.97
2022-09-07T00:53:17.579Z,4.28
2022-09-07T00:55:46.419Z,4.37
2022-09-07T00:58:14.269Z,4.00
2022-09-07T01:00:43.238Z,4.30
2022-09-07T01:03:11.391Z,4.03
2022-09-07T01:06:22.379Z,4.43
2022-09-07T01:08:50.880Z,4.57
2022-09-07T01:11:22.741Z,4.95
2022-09-07T01:13:50.955Z,5.03
2022-09-07T01:16:21.401Z,4.53
2022-09-07T01:18:58.020Z,4.68
2022-09-07T01:21:53.805Z,4.57
2022-09-07T01:24:49.304Z,4.45
2022-09-07T01:27:44.949Z,4.70
2022-09-07T01:30:14.897Z,4.15
2022-09-07T01:32:48.268Z,4.55
2022-09-07T01:35:41.661Z,4.30
2022-09-07T01:38:23.642Z,4.65
2022-09-07T01:41:05.352Z,4.60
2022-09-07T01:44:02.747Z,4.45
2022-09-07T01:46:52.051Z,4.78
2022-09-07T01:49:40.436Z,5.03
2022-09-07T01:52:33.929Z,5.15
2022-09-07T01:55:12.371Z,4.95
2022-09-07T01:57:46.640Z,5.30
2022-09-07T02:00:18.805Z,5.60
2022-09-07T02:02:51.672Z,5.50
2022-09-07T02:05:33.761Z,5.47
2022-09-07T02:08:12.478Z,5.97
2022-09-07T02:10:43.783Z,6.20
2022-09-07T02:13:19.788Z,5.57
2022-09-07T02:15:50.177Z,6.20
2022-09-07T02:18:20.365Z,6.97
2022-09-07T02:20:50.517Z,7.32
2022-09-07T02:23:36.572Z,7.07
2022-09-07T02:26:10.892Z,6.87
2022-09-07T02:28:39.547Z,6.87
2022-09-07T02:31:08.288Z,6.93
2022-09-07T02:33:36.033Z,6.65
2022-09-07T02:36:04.739Z,7.65
2022-09-07T02:38:33.595Z,7.75
2022-09-07T02:41:02.492Z,6.93
2022-09-07T02:43:31.184Z,7.65
2022-09-07T02:46:22.976Z,7.72
2022-09-07T02:49:14.019Z,7.35
2022-09-07T02:51:47.443Z,6.78
2022-09-07T02:54:42.895Z,7.40
2022-09-07T02:57:32.242Z,7.50
2022-09-07T03:00:03.032Z,7.90
2022-09-07T03:02:56.951Z,7.50
2022-09-07T03:05:29.496Z,8.30
2022-09-07T03:08:39.959Z,7.77
2022-09-07T03:11:08.480Z,7.07
2022-09-07T03:13:35.926Z,6.53
2022-09-07T03:16:03.514Z,5.95
2022-09-07T03:18:31.360Z,6.43
2022-09-07T03:20:58.909Z,7.10
2022-09-07T03:23:26.369Z,6.95
2022-09-07T03:25:54.276Z,6.35
2022-09-07T03:28:21.786Z,6.40
2022-09-07T03:30:49.320Z,6.93
2022-09-07T03:33:17.359Z,8.00
2022-09-07T03:35:46.058Z,8.00
2022-09-07T03:38:13.553Z,7.45
2022-09-07T03:40:41.511Z,8.07
2022-09-07T03:43:09.007Z,9.30
2022-09-07T03:45:36.487Z,8.67
2022-09-07T03:48:04.357Z,8.82
2022-09-07T03:50:32.004Z,8.60
2022-09-07T03:52:59.507Z,9.10
2022-09-07T03:55:27.206Z,8.77
2022-09-07T03:57:54.647Z,8.80
2022-09-07T04:00:22.244Z,8.38
2022-09-07T04:02:50.084Z,8.77
2022-09-07T04:05:18.101Z,8.10
2022-09-07T04:07:48.708Z,8.18
2022-09-07T04:10:19.349Z,8.53
2022-09-07T04:12:46.885Z,8.95
2022-09-07T04:15:14.336Z,9.57
2022-09-07T04:17:42.174Z,9.50
2022-09-07T04:20:09.977Z,9.50
2022-09-07T04:22:37.473Z,9.13
2022-09-07T04:25:05.615Z,9.30
2022-09-07T04:27:33.241Z,8.70
2022-09-07T04:30:00.684Z,9.05
2022-09-07T04:32:28.483Z,8.48
2022-09-07T04:34:55.968Z,8.40
2022-09-07T04:37:23.473Z,8.27
2022-09-07T04:39:51.984Z,7.57
2022-09-07T04:42:19.441Z,8.43
2022-09-07T04:44:49.454Z,8.15
2022-09-07T04:47:17.829Z,7.50
2022-09-07T04:49:45.316Z,6.15
2022-09-07T04:52:12.821Z,6.53
2022-09-07T04:54:40.515Z,6.45
2022-09-07T04:57:09.717Z,6.35
2022-09-07T04:59:37.253Z,6.27
2022-09-07T05:02:05.150Z,6.40
2022-09-07T05:04:35.515Z,6.10
2022-09-07T05:07:02.988Z,6.97
2022-09-07T05:09:30.927Z,7.40
2022-09-07T05:11:58.439Z,7.90
2022-09-07T05:14:26.041Z,7.20
2022-09-07T05:16:53.883Z,7.85
2022-09-07T05:19:21.368Z,7.75
2022-09-07T05:21:48.853Z,8.27
2022-09-07T05:24:16.742Z,8.10
2022-09-07T05:26:44.262Z,7.78
2022-09-07T05:31:59.668Z,8.05
2022-09-07T05:36:56.213Z,7.70
2022-09-07T05:39:23.966Z,6.55
2022-09-07T05:41:51.462Z,8.15
2022-09-07T05:47:07.013Z,8.48
2022-09-07T05:49:34.640Z,8.13
2022-09-07T05:52:02.299Z,8.30
2022-09-07T05:54:30.041Z,8.35
2022-09-07T05:56:57.482Z,8.60
2022-09-07T05:59:25.034Z,9.20
2022-09-07T06:01:52.775Z,8.43
2022-09-07T06:04:20.661Z,9.05
2022-09-07T06:07:17.790Z,8.68
2022-09-07T06:12:24.248Z,8.48
2022-09-07T06:14:51.972Z,7.47
2022-09-07T06:17:19.708Z,6.72
2022-09-07T06:19:47.468Z,5.95
2022-09-07T06:22:15.254Z,5.90
2022-09-07T06:24:42.765Z,6.03
2022-09-07T06:27:10.453Z,5.23
2022-09-07T06:29:38.293Z,6.35
2022-09-07T06:34:53.742Z,6.80
2022-09-07T06:37:21.314Z,7.47
2022-09-07T06:39:49.428Z,6.83
2022-09-07T06:42:17.301Z,6.85
2022-09-07T06:44:44.900Z,7.03
2022-09-07T06:47:12.445Z,6.07
2022-09-07T06:49:40.175Z,6.43
2022-09-07T06:52:07.671Z,6.17
2022-09-07T06:57:22.906Z,6.60
2022-09-07T06:59:50.521Z,6.10
2022-09-07T07:02:18.165Z,6.18
2022-09-07T07:04:46.680Z,6.40
2022-09-07T07:07:14.540Z,5.25
2022-09-07T07:09:42.593Z,5.72
2022-09-07T07:12:10.729Z,5.65
2022-09-07T07:14:42.443Z,5.70
2022-09-07T07:17:13.213Z,6.00
2022-09-07T07:19:40.915Z,5.22
2022-09-07T07:22:23.799Z,6.28
2022-09-07T07:24:56.205Z,5.12
2022-09-07T07:27:23.825Z,5.53
2022-09-07T07:29:52.583Z,4.97
2022-09-07T07:32:20.323Z,4.90
2022-09-07T07:34:48.138Z,5.50
2022-09-07T07:37:16.110Z,5.07
2022-09-07T07:42:31.648Z,4.63
2022-09-07T07:47:51.399Z,4.60
2022-09-07T07:50:34.942Z,4.87
2022-09-07T07:55:50.776Z,4.40
2022-09-07T07:58:18.417Z,4.72
2022-09-07T08:00:55.606Z,4.75
2022-09-07T08:03:24.920Z,4.80
2022-09-07T08:05:52.799Z,5.40
2022-09-07T08:08:20.864Z,4.50
2022-09-07T08:10:48.699Z,4.50
2022-09-07T08:13:16.792Z,4.50
2022-09-07T08:15:47.323Z,4.35
2022-09-07T08:18:16.630Z,4.43
2022-09-07T08:20:44.424Z,4.50
2022-09-07T08:23:12.055Z,4.22
2022-09-07T08:25:58.959Z,4.47
2022-09-07T08:28:28.079Z,4.18
2022-09-07T08:30:56.425Z,4.28
2022-09-07T08:33:24.432Z,3.80
2022-09-07T08:36:02.842Z,4.50
2022-09-07T08:38:31.961Z,4.18
2022-09-07T08:41:00.606Z,4.75
2022-09-07T08:43:48.860Z,3.95
2022-09-07T08:46:40.324Z,4.63
2022-09-07T08:49:16.155Z,5.03
2022-09-07T08:51:49.162Z,4.10
2022-09-07T08:54:17.344Z,3.80
2022-09-07T08:59:48.206Z,3.77
2022-09-07T09:02:38.473Z,3.92
2022-09-07T09:05:22.761Z,4.15
2022-09-07T09:08:12.292Z,4.40
2022-09-07T09:10:56.596Z,4.05
2022-09-07T09:13:36.200Z,4.03
2022-09-07T09:16:56.415Z,4.40
2022-09-07T09:19:58.703Z,4.40
2022-09-07T09:22:28.464Z,4.53
2022-09-07T09:25:22.039Z,4.30
2022-09-07T09:27:49.787Z,4.23
2022-09-07T09:30:20.443Z,3.85
2022-09-07T09:32:50.628Z,4.80
2022-09-07T09:35:38.341Z,4.20
2022-09-07T09:38:06.152Z,4.10
2022-09-07T09:40:35.541Z,4.07
2022-09-07T09:43:05.837Z,4.20
2022-09-07T09:48:40.045Z,5.15
2022-09-07T09:53:58.154Z,4.73
2022-09-07T09:56:52.218Z,4.55
2022-09-07T10:05:27.247Z,4.32
2022-09-07T10:07:54.952Z,4.43
2022-09-07T10:10:22.784Z,4.35
2022-09-07T10:12:53.180Z,5.35
2022-09-07T10:15:26.708Z,4.78
2022-09-07T10:17:54.523Z,4.82
2022-09-07T10:20:21.866Z,4.30
2022-09-07T10:22:52.302Z,4.80
2022-09-07T10:25:44.427Z,5.15
2022-09-07T10:28:12.805Z,4.65
2022-09-07T10:30:40.472Z,5.05
2022-09-07T10:33:40.446Z,4.80
2022-09-07T10:36:32.213Z,4.90
2022-09-07T10:39:03.292Z,4.80
2022-09-07T10:41:43.689Z,4.97
2022-09-07T10:44:24.609Z,5.50
2022-09-07T10:47:26.269Z,5.80
2022-09-07T10:53:40.055Z,5.32
2022-09-07T10:56:15.215Z,5.75
2022-09-07T10:59:01.791Z,6.05
2022-09-07T11:01:42.259Z,6.10
2022-09-07T11:04:34.374Z,6.20
2022-09-07T11:07:26.733Z,6.32
2022-09-07T11:09:59.196Z,6.82
2022-09-07T11:12:33.785Z,7.53
2022-09-07T11:15:08.970Z,6.43
2022-09-07T11:17:45.323Z,6.25
2022-09-07T11:20:22.924Z,5.53
2022-09-07T11:23:17.313Z,6.18
2022-09-07T11:26:14.491Z,7.37
2022-09-07T11:29:29.120Z,6.77
2022-09-07T11:31:42.228Z,7.30
2022-09-07T11:34:24.107Z,7.40
2022-09-07T11:37:06.848Z,7.65
2022-09-07T11:39:52.879Z,7.80
2022-09-07T11:42:43.551Z,7.50
2022-09-07T11:45:19.277Z,6.78
2022-09-07T11:47:54.526Z,7.87
2022-09-07T11:50:23.500Z,8.27
2022-09-07T11:52:57.426Z,8.25
2022-09-07T11:55:32.379Z,7.67
2022-09-07T11:58:20.976Z,7.90
2022-09-07T12:01:07.189Z,7.72
2022-09-07T12:04:29.658Z,7.97
2022-09-07T12:06:57.112Z,9.30
2022-09-07T12:09:35.812Z,8.97
2022-09-07T12:12:22.204Z,9.07
2022-09-07T12:14:55.577Z,10.88
2022-09-07T12:17:26.134Z,10.57
2022-09-07T12:20:15.364Z,11.57
2022-09-07T12:23:07.109Z,11.13
2022-09-07T12:25:35.154Z,11.48
2022-09-07T12:28:04.391Z,12.63
2022-09-07T12:30:34.897Z,11.20
2022-09-07T12:33:17.116Z,11.00
2022-09-07T12:35:44.715Z,12.43
2022-09-07T12:38:18.580Z,12.10
2022-09-07T12:41:20.939Z,11.35
2022-09-07T12:43:48.591Z,10.80
2022-09-07T12:46:40.576Z,10.20
2022-09-07T12:49:32.888Z,9.43
2022-09-07T12:52:15.694Z,9.82
2022-09-07T12:55:16.352Z,9.15
2022-09-07T12:58:25.836Z,9.60
2022-09-07T13:01:13.018Z,10.07
2022-09-07T13:03:50.100Z,7.80
2022-09-07T13:09:44.719Z,8.13
2022-09-07T13:15:43.787Z,8.48
2022-09-07T13:18:29.826Z,9.27
2022-09-07T13:21:09.465Z,10.55
2022-09-07T13:23:43.029Z,10.00
2022-09-07T13:26:52.200Z,8.52
2022-09-07T13:29:45.637Z,8.35
2022-09-07T13:35:24.006Z,7.47
2022-09-07T13:37:54.715Z,8.80
2022-09-07T13:40:28.341Z,8.85
2022-09-07T13:42:57.055Z,9.07
2022-09-07T13:45:55.488Z,9.00
2022-09-07T13:48:37.304Z,8.93
2022-09-07T13:51:18.772Z,8.68
2022-09-07T13:53:55.347Z,9.15
2022-09-07T13:57:02.033Z,10.32
2022-09-07T13:59:31.809Z,9.53
2022-09-07T14:02:01.589Z,10.27
2022-09-07T14:04:39.301Z,9.55
2022-09-07T14:07:13.577Z,8.48
2022-09-07T14:09:41.714Z,9.40
2022-09-07T14:12:19.199Z,7.93
2022-09-07T14:14:47.862Z,8.15
2022-09-07T14:17:18.057Z,8.90
2022-09-07T14:19:50.235Z,9.05
2022-09-07T14:22:19.485Z,9.57
2022-09-07T14:24:57.430Z,9.00
2022-09-07T14:27:33.228Z,9.00
2022-09-07T14:30:19.113Z,8.50
2022-09-07T14:32:48.225Z,8.13
2022-09-07T14:35:18.172Z,7.95
2022-09-07T14:37:46.408Z,7.53
2022-09-07T14:40:22.587Z,7.95
2022-09-07T14:42:52.241Z,7.95
2022-09-07T14:45:32.695Z,7.97
2022-09-07T14:48:11.728Z,7.60
2022-09-07T14:50:41.219Z,6.23
2022-09-07T14:56:19.587Z,6.60
2022-09-07T14:58:48.476Z,6.37
2022-09-07T15:04:03.756Z,5.90
2022-09-07T15:09:37.136Z,6.43
2022-09-07T15:12:19.712Z,6.62
2022-09-07T15:14:47.891Z,6.97
2022-09-07T15:17:47.825Z,6.97
2022-09-07T15:20:31.845Z,7.00
2022-09-07T15:23:00.100Z,7.18
2022-09-07T15:25:28.537Z,7.28
2022-09-07T15:27:56.093Z,7.43
2022-09-07T15:30:25.208Z,8.10
2022-09-07T15:32:54.325Z,8.27
2022-09-07T15:35:22.244Z,7.90
2022-09-07T15:38:58.879Z,8.18
2022-09-07T15:41:03.906Z,8.27
2022-09-07T15:43:31.686Z,8.53
2022-09-07T15:45:59.535Z,8.30
2022-09-07T15:48:27.146Z,8.30
2022-09-07T15:52:04.876Z,8.15
2022-09-07T15:56:44.447Z,7.37
2022-09-07T15:59:30.692Z,9.07
2022-09-07T16:01:59.045Z,8.48
2022-09-07T16:04:27.032Z,8.82
2022-09-07T16:06:54.784Z,8.52
2022-09-07T16:09:22.371Z,7.50
2022-09-07T16:11:50.916Z,7.82
2022-09-07T16:14:18.756Z,8.63
2022-09-07T16:19:35.986Z,8.88
2022-09-07T16:22:03.813Z,9.00
2022-09-07T16:24:31.352Z,8.13
2022-09-07T16:26:59.096Z,8.77
2022-09-07T16:29:26.876Z,8.20
2022-09-07T16:34:42.162Z,8.33
2022-09-07T16:37:09.686Z,7.57
2022-09-07T16:39:37.324Z,8.13
2022-09-07T16:42:05.411Z,8.73
2022-09-07T16:44:35.079Z,8.25
2022-09-07T16:47:02.576Z,7.77
2022-09-07T16:49:42.858Z,8.40
2022-09-07T16:52:10.991Z,7.65
2022-09-07T16:54:38.919Z,7.93
2022-09-07T16:57:06.496Z,8.75
2022-09-07T16:59:34.131Z,8.37
2022-09-07T17:02:02.048Z,8.55
2022-09-07T17:04:29.516Z,9.18
2022-09-07T17:06:57.007Z,9.50
2022-09-07T17:09:26.807Z,9.10
2022-09-07T17:11:54.294Z,9.23
2022-09-07T17:14:21.805Z,8.40
2022-09-07T17:16:49.783Z,8.82
2022-09-07T17:19:32.911Z,8.68
2022-09-07T17:22:01.139Z,8.68
2022-09-07T17:24:29.615Z,9.17
2022-09-07T17:26:59.989Z,7.82
2022-09-07T17:29:30.511Z,9.07
2022-09-07T17:34:46.992Z,10.05
2022-09-07T17:37:14.458Z,9.30
2022-09-07T17:39:42.076Z,10.02
2022-09-07T17:42:11.131Z,10.43
2022-09-07T17:44:38.668Z,10.40
2022-09-07T17:47:06.166Z,10.68
2022-09-07T17:49:34.189Z,10.17
2022-09-07T17:52:02.065Z,10.90
2022-09-07T17:54:29.583Z,10.23
2022-09-07T17:56:57.368Z,11.18
2022-09-07T18:02:13.785Z,11.77
2022-09-07T18:04:42.580Z,11.77
2022-09-07T18:07:10.184Z,11.57
2022-09-07T18:09:37.825Z,11.70
2022-09-07T18:12:05.708Z,12.82
2022-09-07T18:14:33.289Z,12.17
2022-09-07T18:17:00.845Z,12.02
2022-09-07T18:19:28.682Z,14.00
2022-09-07T18:21:56.216Z,13.38
2022-09-07T18:24:24.343Z,13.43
2022-09-07T18:26:53.717Z,14.20
2022-09-07T18:29:29.524Z,13.20
2022-09-07T18:32:00.573Z,13.77
2022-09-07T18:34:28.994Z,14.07
2022-09-07T18:36:58.155Z,13.30
2022-09-07T18:39:26.876Z,13.97
2022-09-07T18:41:55.148Z,14.60
2022-09-07T18:47:21.730Z,14.45
2022-09-07T18:49:51.668Z,15.30
2022-09-07T18:55:09.895Z,15.35
2022-09-07T18:57:38.088Z,14.13
2022-09-07T19:00:08.242Z,15.07
2022-09-07T19:02:36.246Z,15.30
2022-09-07T19:07:52.428Z,14.07
2022-09-07T19:10:20.348Z,15.35
2022-09-07T19:12:47.940Z,14.73
2022-09-07T19:15:15.716Z,14.82
2022-09-07T19:17:43.999Z,14.23
2022-09-07T19:20:11.853Z,14.00
2022-09-07T19:22:39.616Z,15.15
2022-09-07T19:25:07.613Z,15.38
2022-09-07T19:27:35.216Z,14.55
2022-09-07T19:30:02.837Z,15.00
2022-09-07T19:32:30.655Z,14.35
2022-09-07T19:34:58.150Z,14.68
2022-09-07T19:37:26.157Z,15.98
2022-09-07T19:39:56.687Z,15.73
2022-09-07T19:42:24.836Z,15.63
2022-09-07T19:44:53.246Z,15.77
2022-09-07T19:47:21.505Z,16.17
2022-09-07T19:49:49.106Z,15.30
2022-09-07T19:52:16.680Z,16.17
2022-09-07T19:54:44.533Z,15.73
2022-09-07T19:57:12.002Z,15.68
2022-09-07T19:59:39.591Z,15.98
2022-09-07T20:02:09.878Z,15.52
2022-09-07T20:04:38.087Z,14.68
2022-09-07T20:07:06.629Z,14.00
2022-09-07T20:09:34.167Z,12.60
2022-09-07T20:12:03.731Z,12.00
2022-09-07T20:14:31.174Z,11.35
2022-09-07T20:16:58.748Z,10.30
2022-09-07T20:19:26.640Z,10.73
2022-09-07T20:21:55.815Z,11.45
2022-09-07T20:24:23.413Z,10.90
2022-09-07T20:26:51.370Z,10.85
2022-09-07T20:29:28.159Z,9.93
2022-09-07T20:31:58.349Z,10.30
2022-09-07T20:34:27.079Z,9.90
2022-09-07T20:36:54.843Z,9.90
2022-09-07T20:39:22.807Z,10.15
2022-09-07T20:41:50.576Z,10.00
2022-09-07T20:44:18.534Z,9.43
2022-09-07T20:46:46.334Z,9.65
2022-09-07T20:49:13.873Z,10.20
2022-09-07T20:51:41.357Z,9.68
2022-09-07T20:54:10.116Z,9.45
2022-09-07T20:56:37.688Z,9.20
2022-09-07T20:59:05.284Z,9.65
2022-09-07T21:01:33.334Z,10.43
2022-09-07T21:04:01.212Z,9.65
2022-09-07T21:06:29.878Z,10.00
2022-09-07T21:08:57.758Z,9.60
2022-09-07T21:11:27.425Z,10.10
2022-09-07T21:14:21.676Z,9.07
2022-09-07T21:16:49.364Z,8.77
2022-09-07T21:19:16.889Z,9.70
2022-09-07T21:21:44.348Z,8.90
2022-09-07T21:24:20.499Z,9.10
2022-09-07T21:26:48.824Z,9.13
2022-09-07T21:29:23.264Z,8.80
2022-09-07T21:31:53.385Z,8.43
2022-09-07T21:34:21.984Z,8.27
2022-09-07T21:36:49.493Z,8.70
2022-09-07T21:39:17.495Z,8.65
2022-09-07T21:41:45.275Z,8.65
2022-09-07T21:44:14.798Z,8.93
2022-09-07T21:46:43.089Z,9.43
2022-09-07T21:49:11.199Z,9.23
2022-09-07T21:51:38.816Z,9.55
2022-09-07T21:54:06.705Z,8.43
2022-09-07T21:56:34.693Z,7.35
2022-09-07T21:59:02.668Z,7.10
2022-09-07T22:01:30.945Z,6.55
2022-09-07T22:04:03.085Z,7.45
2022-09-07T22:06:32.287Z,6.75
2022-09-07T22:09:01.026Z,7.60
2022-09-07T22:11:29.578Z,6.80
2022-09-07T22:13:59.784Z,6.78
2022-09-07T22:16:27.812Z,7.55
2022-09-07T22:18:55.876Z,8.07
2022-09-07T22:21:25.702Z,6.50
2022-09-07T22:23:57.160Z,6.27
2022-09-07T22:26:26.628Z,5.47
2022-09-07T22:28:55.098Z,6.10
2022-09-07T22:31:31.190Z,5.93
2022-09-07T22:34:00.383Z,6.30
2022-09-07T22:36:33.678Z,6.73
2022-09-07T22:39:04.013Z,7.05
2022-09-07T22:41:36.749Z,6.32
2022-09-07T22:44:05.854Z,7.30
2022-09-07T22:46:37.112Z,7.45
2022-09-07T22:49:06.408Z,7.40
2022-09-07T22:51:33.983Z,7.78
2022-09-07T22:54:01.506Z,8.07
2022-09-07T22:56:31.289Z,7.25
2022-09-07T22:59:01.019Z,6.25
2022-09-07T23:01:29.884Z,7.40
2022-09-07T23:03:58.335Z,6.03
2022-09-07T23:06:26.808Z,6.18
2022-09-07T23:08:56.093Z,5.82
2022-09-07T23:11:24.671Z,6.28
2022-09-07T23:13:57.318Z,5.00
2022-09-07T23:16:26.122Z,5.57
2022-09-07T23:18:54.702Z,4.87
2022-09-07T23:21:22.208Z,4.78
2022-09-07T23:23:52.129Z,5.10
2022-09-07T23:26:21.112Z,4.80
2022-09-07T23:28:52.879Z,4.70
2022-09-07T23:31:21.514Z,5.70
2022-09-07T23:33:49.409Z,4.87
2022-09-07T23:36:17.497Z,5.93
2022-09-07T23:38:46.180Z,4.60
2022-09-07T23:41:14.179Z,4.00
2022-09-07T23:43:41.848Z,4.72
2022-09-07T23:46:13.395Z,4.68
2022-09-07T23:48:43.145Z,4.50
2022-09-07T23:51:11.542Z,4.10
2022-09-07T23:53:39.477Z,5.05
2022-09-07T23:56:07.453Z,4.50
2022-09-07T23:58:35.182Z,4.80
